createdAt,value
2022-11-04T00:00:00.420Z,2.9
2022-11-04T00:05:00.265Z,1.8
2022-11-04T00:10:00.321Z,2.5
2022-11-04T00:15:00.364Z,4.0
2022-11-04T00:20:00.315Z,2.5
2022-11-04T00:25:00.328Z,2.2
2022-11-04T00:30:01.575Z,2.5
2022-11-04T00:35:00.306Z,0.0
2022-11-04T00:40:00.457Z,0.0
2022-11-04T00:45:00.309Z,0.0
2022-11-04T00:50:00.313Z,0.0
2022-11-04T00:55:00.287Z,0.0
2022-11-04T01:00:00.332Z,0.0
2022-11-04T01:05:00.308Z,3.2
2022-11-04T01:10:00.313Z,0.0
2022-11-04T01:15:00.316Z,2.5
2022-11-04T01:20:00.348Z,0.0
2022-11-04T01:25:00.324Z,2.2
2022-11-04T01:30:00.340Z,4.3
2022-11-04T01:35:00.287Z,2.5
2022-11-04T01:40:00.341Z,1.4
2022-11-04T01:45:00.330Z,3.6
2022-11-04T01:50:00.304Z,0.0
2022-11-04T01:55:00.349Z,4.0
2022-11-04T02:00:00.402Z,3.2
2022-11-04T02:05:00.326Z,5.8
2022-11-04T02:10:00.297Z,0.0
2022-11-04T02:15:00.332Z,2.9
2022-11-04T02:20:00.352Z,0.0
2022-11-04T02:25:00.303Z,0.0
2022-11-04T02:30:00.321Z,0.0
2022-11-04T02:35:00.323Z,0.0
2022-11-04T02:40:00.302Z,0.0
2022-11-04T02:45:00.337Z,1.8
2022-11-04T02:50:00.323Z,2.2
2022-11-04T02:55:00.331Z,2.5
2022-11-04T03:00:00.313Z,1.8
2022-11-04T03:05:00.303Z,4.0
2022-11-04T03:10:00.342Z,0.0
2022-11-04T03:15:00.355Z,2.5
2022-11-04T03:20:00.419Z,2.2
2022-11-04T03:25:00.482Z,2.2
2022-11-04T03:30:00.717Z,0.0
2022-11-04T03:35:00.344Z,1.8
2022-11-04T03:40:00.372Z,1.4
2022-11-04T03:45:00.475Z,0.0
2022-11-04T03:50:00.328Z,0.0
2022-11-04T03:55:00.302Z,1.8
2022-11-04T04:00:00.325Z,0.0
2022-11-04T04:05:00.307Z,0.0
2022-11-04T04:10:00.342Z,0.0
2022-11-04T04:15:00.378Z,0.0
2022-11-04T04:20:00.337Z,0.0
2022-11-04T04:25:00.289Z,0.0
2022-11-04T04:30:00.323Z,0.0
2022-11-04T04:35:00.311Z,1.4
2022-11-04T04:40:00.326Z,0.0
2022-11-04T04:45:00.327Z,0.0
2022-11-04T04:50:00.327Z,0.0
2022-11-04T04:55:00.296Z,0.0
2022-11-04T05:00:00.357Z,0.0
2022-11-04T05:05:00.556Z,0.0
2022-11-04T05:10:00.342Z,0.0
2022-11-04T05:15:00.394Z,0.0
2022-11-04T05:20:00.298Z,1.8
2022-11-04T05:25:00.288Z,1.4
2022-11-04T05:30:00.392Z,0.0
2022-11-04T05:35:00.290Z,1.8
2022-11-04T05:40:00.348Z,0.0
2022-11-04T05:45:00.297Z,0.0
2022-11-04T05:50:00.323Z,0.0
2022-11-04T05:55:00.299Z,0.0
2022-11-04T06:00:00.495Z,0.0
2022-11-04T06:05:00.279Z,0.0
2022-11-04T06:10:00.325Z,0.0
2022-11-04T06:15:00.311Z,0.0
2022-11-04T06:20:00.484Z,0.0
2022-11-04T06:25:00.304Z,0.0
2022-11-04T06:30:00.323Z,0.0
2022-11-04T06:35:00.313Z,0.0
2022-11-04T06:40:00.375Z,0.0
2022-11-04T06:45:00.328Z,0.0
2022-11-04T06:50:00.330Z,0.0
2022-11-04T06:55:00.326Z,0.0
2022-11-04T07:00:00.352Z,0.0
2022-11-04T07:05:00.580Z,0.0
2022-11-04T07:10:00.322Z,3.2
2022-11-04T07:15:00.317Z,7.6
2022-11-04T07:20:00.335Z,0.0
2022-11-04T07:25:00.269Z,0.0
2022-11-04T07:30:00.333Z,2.2
2022-11-04T07:35:00.285Z,0.0
2022-11-04T07:40:00.330Z,0.0
2022-11-04T07:45:00.324Z,3.6
2022-11-04T07:50:06.645Z,1.4
2022-11-04T07:55:00.323Z,0.0
2022-11-04T08:00:00.340Z,0.0
2022-11-04T08:05:00.299Z,1.4
2022-11-04T08:10:00.321Z,2.9
2022-11-04T08:15:00.329Z,0.0
2022-11-04T08:20:00.330Z,2.5
2022-11-04T08:25:00.325Z,0.0
2022-11-04T08:30:00.366Z,2.2
2022-11-04T08:35:00.324Z,0.0
2022-11-04T08:40:00.347Z,0.0
2022-11-04T08:45:00.303Z,3.6
2022-11-04T08:50:00.343Z,2.5
2022-11-04T08:55:00.313Z,7.6
2022-11-04T09:00:00.387Z,4.3
2022-11-04T09:05:00.326Z,4.0
2022-11-04T09:10:00.315Z,4.7
2022-11-04T09:15:00.297Z,5.0
2022-11-04T09:20:00.343Z,4.3
2022-11-04T09:25:00.360Z,2.9
2022-11-04T09:30:00.866Z,2.5
2022-11-04T09:35:00.393Z,4.7
2022-11-04T09:40:00.386Z,2.9
2022-11-04T09:45:22.001Z,11.9
2022-11-04T09:50:00.381Z,4.7
2022-11-04T09:55:00.358Z,14.8
2022-11-04T10:00:00.462Z,12.6
2022-11-04T10:05:00.424Z,13.0
2022-11-04T10:10:00.418Z,6.5
2022-11-04T10:15:00.376Z,4.3
2022-11-04T10:20:00.417Z,4.0
2022-11-04T10:25:00.349Z,4.0
2022-11-04T10:30:00.380Z,7.2
2022-11-04T10:35:00.357Z,5.0
2022-11-04T10:40:00.395Z,2.2
2022-11-04T10:45:00.375Z,6.1
2022-11-04T10:50:29.246Z,5.0
2022-11-04T10:55:00.359Z,2.5
2022-11-04T11:00:00.353Z,6.5
2022-11-04T11:05:00.288Z,3.6
2022-11-04T11:10:00.321Z,2.5
2022-11-04T11:15:00.319Z,7.6
2022-11-04T11:20:00.328Z,6.8
2022-11-04T11:25:00.443Z,6.5
2022-11-04T11:30:00.390Z,10.8
2022-11-04T11:35:00.379Z,5.8
2022-11-04T11:40:00.307Z,13.3
2022-11-04T11:45:00.453Z,8.6
2022-11-04T11:50:00.334Z,13.7
2022-11-04T11:55:00.304Z,10.1
2022-11-04T12:10:00.541Z,7.2
2022-11-04T12:15:00.311Z,5.0
2022-11-04T12:20:00.303Z,1.8
2022-11-04T12:25:00.289Z,3.2
2022-11-04T12:30:00.344Z,0.0
2022-11-04T12:35:00.309Z,2.2
2022-11-04T12:40:00.324Z,4.0
2022-11-04T12:45:00.294Z,1.8
2022-11-04T12:50:00.316Z,0.0
2022-11-04T12:55:00.309Z,0.0
2022-11-04T13:00:00.336Z,2.5
2022-11-04T13:05:00.389Z,0.0
2022-11-04T13:10:00.441Z,0.0
2022-11-04T13:15:00.316Z,1.8
2022-11-04T13:20:00.312Z,2.2
2022-11-04T13:25:00.304Z,1.4
2022-11-04T13:30:00.343Z,0.0
2022-11-04T13:35:00.294Z,0.0
2022-11-04T13:40:00.329Z,0.0
2022-11-04T13:45:00.369Z,0.0
2022-11-04T13:50:00.320Z,0.0
2022-11-04T13:55:00.291Z,0.0
2022-11-04T14:00:00.294Z,0.0
2022-11-04T14:05:00.313Z,2.2
2022-11-04T14:10:00.323Z,0.0
2022-11-04T14:15:00.332Z,0.0
2022-11-04T14:20:00.349Z,1.8
2022-11-04T14:25:00.383Z,0.0
2022-11-04T14:30:00.335Z,0.0
2022-11-04T14:35:00.282Z,2.9
2022-11-04T14:40:00.300Z,1.4
2022-11-04T14:45:00.357Z,2.2
2022-11-04T14:50:00.377Z,0.0
2022-11-04T14:55:00.292Z,2.9
2022-11-04T15:00:00.510Z,2.9
2022-11-04T15:05:00.357Z,1.4
2022-11-04T15:10:00.306Z,0.0
2022-11-04T15:15:00.374Z,1.8
2022-11-04T15:20:00.399Z,1.4
2022-11-04T15:25:00.315Z,2.2
2022-11-04T15:30:00.439Z,3.6
2022-11-04T15:35:00.273Z,3.2
2022-11-04T15:40:00.367Z,4.7
2022-11-04T15:45:00.300Z,4.0
2022-11-04T15:50:00.291Z,4.3
2022-11-04T15:55:00.343Z,2.2
2022-11-04T16:00:00.351Z,2.5
2022-11-04T16:05:00.304Z,2.2
2022-11-04T16:10:09.911Z,3.6
2022-11-04T16:15:00.335Z,5.0
2022-11-04T16:20:00.306Z,2.2
2022-11-04T16:25:00.285Z,5.8
2022-11-04T16:30:00.634Z,2.2
2022-11-04T16:35:00.290Z,5.4
2022-11-04T16:40:04.603Z,2.2
2022-11-04T16:45:03.345Z,2.2
2022-11-04T16:50:00.304Z,1.8
2022-11-04T16:55:00.301Z,2.9
2022-11-04T17:00:00.971Z,1.4
2022-11-04T17:05:00.334Z,2.2
2022-11-04T17:10:00.341Z,0.0
2022-11-04T17:15:00.308Z,2.9
2022-11-04T17:20:00.343Z,3.2
2022-11-04T17:25:00.302Z,0.0
2022-11-04T17:30:00.330Z,0.0
2022-11-04T17:35:00.384Z,1.4
2022-11-04T17:40:00.504Z,3.6
2022-11-04T17:45:00.374Z,2.5
2022-11-04T17:50:00.310Z,0.0
2022-11-04T17:55:00.298Z,0.0
2022-11-04T18:00:00.437Z,1.8
2022-11-04T18:05:00.278Z,3.6
2022-11-04T18:10:00.447Z,2.5
2022-11-04T18:15:00.344Z,2.5
2022-11-04T18:20:00.497Z,0.0
2022-11-04T18:25:00.639Z,3.2
2022-11-04T18:30:00.341Z,0.0
2022-11-04T18:35:00.367Z,2.2
2022-11-04T18:40:00.313Z,1.4
2022-11-04T18:45:00.302Z,4.0
2022-11-04T18:50:00.351Z,1.8
2022-11-04T18:55:00.278Z,1.8
2022-11-04T19:00:00.330Z,1.8
2022-11-04T19:05:00.311Z,2.9
2022-11-04T19:10:00.363Z,2.2
2022-11-04T19:15:00.334Z,1.8
2022-11-04T19:20:00.365Z,2.2
2022-11-04T19:25:00.324Z,1.8
2022-11-04T19:30:00.393Z,2.9
2022-11-04T19:35:00.357Z,2.2
2022-11-04T19:40:00.501Z,2.2
2022-11-04T19:45:00.343Z,2.5
2022-11-04T19:50:00.355Z,1.8
2022-11-04T19:55:00.392Z,4.3
2022-11-04T20:00:00.330Z,2.9
2022-11-04T20:05:00.281Z,0.0
2022-11-04T20:10:00.321Z,3.6
2022-11-04T20:15:00.300Z,2.9
2022-11-04T20:20:00.317Z,2.9
2022-11-04T20:25:00.301Z,3.6
2022-11-04T20:30:00.321Z,2.9
2022-11-04T20:35:00.336Z,0.0
2022-11-04T20:40:00.682Z,0.0
2022-11-04T20:45:00.352Z,0.0
2022-11-04T20:50:00.337Z,2.2
2022-11-04T20:55:00.302Z,2.9
2022-11-04T21:00:00.363Z,2.9
2022-11-04T21:05:00.305Z,1.8
2022-11-04T21:10:00.406Z,4.3
2022-11-04T21:15:00.314Z,2.5
2022-11-04T21:20:00.585Z,1.8
2022-11-04T21:25:00.356Z,2.2
2022-11-04T21:30:00.452Z,1.4
2022-11-04T21:35:00.321Z,1.8
2022-11-04T21:40:00.339Z,0.0
2022-11-04T21:45:00.332Z,4.7
2022-11-04T21:50:00.342Z,1.8
2022-11-04T21:55:00.369Z,4.7
2022-11-04T22:00:00.394Z,4.0
2022-11-04T22:05:04.980Z,4.3
2022-11-04T22:10:04.089Z,3.6
2022-11-04T22:15:01.770Z,6.5
2022-11-04T22:20:01.332Z,4.0
2022-11-04T22:25:00.323Z,5.8
2022-11-04T22:30:00.399Z,3.6
2022-11-04T22:35:00.384Z,6.5
2022-11-04T22:40:00.349Z,4.7
2022-11-04T22:45:00.373Z,5.0
2022-11-04T22:50:00.304Z,8.3
2022-11-04T22:55:00.281Z,3.6
2022-11-04T23:00:00.394Z,4.0
2022-11-04T23:05:00.271Z,5.4
2022-11-04T23:10:00.406Z,4.3
2022-11-04T23:15:00.336Z,5.4
2022-11-04T23:20:00.356Z,6.8
2022-11-04T23:25:00.362Z,6.5
2022-11-04T23:30:00.329Z,5.8
2022-11-04T23:35:00.302Z,5.8
2022-11-04T23:40:00.324Z,6.8
2022-11-04T23:45:00.289Z,7.9
2022-11-04T23:50:00.369Z,8.6
2022-11-04T23:55:00.383Z,8.6
